createdAt,value
2019-02-17T00:01:46.180Z,15.00
2019-02-17T00:04:18.971Z,15.07
2019-02-17T00:06:52.109Z,17.10
2019-02-17T00:09:25.644Z,15.03
2019-02-17T00:11:58.266Z,15.88
2019-02-17T00:14:36.078Z,15.30
2019-02-17T00:17:08.521Z,16.17
2019-02-17T00:19:42.650Z,12.90
2019-02-17T00:22:15.440Z,14.85
2019-02-17T00:24:48.993Z,14.67
2019-02-17T00:27:21.599Z,13.70
2019-02-17T00:29:54.525Z,13.93
2019-02-17T00:32:27.188Z,15.37
2019-02-17T00:34:59.962Z,14.40
2019-02-17T00:37:32.950Z,14.80
2019-02-17T00:40:06.096Z,14.83
2019-02-17T00:42:39.531Z,14.90
2019-02-17T00:45:15.506Z,14.47
2019-02-17T00:47:48.190Z,13.70
2019-02-17T00:50:22.010Z,13.63
2019-02-17T00:52:55.970Z,14.33
2019-02-17T00:55:29.197Z,15.10
2019-02-17T00:58:03.184Z,14.03
2019-02-17T01:00:36.018Z,13.73
2019-02-17T01:03:08.582Z,13.97
2019-02-17T01:05:45.678Z,13.60
2019-02-17T01:08:18.790Z,13.60
2019-02-17T01:10:51.272Z,13.60
2019-02-17T01:13:29.790Z,13.73
2019-02-17T01:16:02.883Z,13.27
2019-02-17T01:18:35.503Z,13.83
2019-02-17T01:21:11.150Z,14.23
2019-02-17T01:23:43.927Z,14.23
2019-02-17T01:26:17.058Z,13.27
2019-02-17T01:28:50.178Z,13.53
2019-02-17T01:31:22.749Z,15.35
2019-02-17T01:33:56.131Z,14.67
2019-02-17T01:36:28.623Z,14.43
2019-02-17T01:39:07.398Z,16.13
2019-02-17T01:41:39.973Z,14.80
2019-02-17T01:44:12.614Z,14.33
2019-02-17T01:46:45.744Z,14.23
2019-02-17T01:49:18.314Z,13.83
2019-02-17T01:51:51.841Z,14.17
2019-02-17T01:54:28.035Z,14.10
2019-02-17T01:57:00.984Z,14.17
2019-02-17T01:59:33.562Z,14.57
2019-02-17T02:02:08.077Z,15.37
2019-02-17T02:04:40.458Z,14.57
2019-02-17T02:07:14.059Z,14.03
2019-02-17T02:09:47.636Z,14.10
2019-02-17T02:12:20.150Z,13.80
2019-02-17T02:14:52.912Z,15.13
2019-02-17T02:17:30.489Z,14.60
2019-02-17T02:20:12.767Z,15.63
2019-02-17T02:22:50.545Z,14.83
2019-02-17T02:25:34.909Z,14.23
2019-02-17T02:28:15.706Z,15.43
2019-02-17T02:31:01.366Z,15.43
2019-02-17T02:33:40.650Z,15.10
2019-02-17T02:36:26.704Z,14.80
2019-02-17T02:40:50.342Z,16.10
2019-02-17T02:43:23.286Z,14.93
2019-02-17T02:45:55.694Z,14.63
2019-02-17T02:48:30.246Z,14.07
2019-02-17T02:51:03.237Z,15.87
2019-02-17T02:53:35.885Z,14.83
2019-02-17T02:56:08.315Z,14.83
2019-02-17T02:58:41.164Z,14.40
2019-02-17T03:01:13.795Z,14.40
2019-02-17T03:03:46.315Z,14.70
2019-02-17T03:06:28.238Z,14.87
2019-02-17T03:09:01.362Z,15.03
2019-02-17T03:11:33.677Z,14.20
2019-02-17T03:14:06.650Z,14.23
2019-02-17T03:16:39.246Z,14.63
2019-02-17T03:19:12.430Z,14.33
2019-02-17T03:21:45.334Z,15.88
2019-02-17T03:24:18.173Z,14.30
2019-02-17T03:26:50.834Z,15.57
2019-02-17T03:29:23.702Z,15.43
2019-02-17T03:31:56.271Z,14.60
2019-02-17T03:34:29.039Z,14.30
2019-02-17T03:37:01.843Z,14.73
2019-02-17T03:39:34.467Z,14.73
2019-02-17T03:42:07.001Z,17.37
2019-02-17T03:44:39.783Z,15.17
2019-02-17T03:47:12.389Z,14.60
2019-02-17T03:49:44.946Z,14.57
2019-02-17T03:52:18.130Z,15.47
2019-02-17T03:54:50.770Z,17.03
2019-02-17T03:57:23.781Z,16.57
2019-02-17T03:59:56.773Z,16.93
2019-02-17T04:02:29.270Z,16.43
2019-02-17T04:05:01.855Z,16.90
2019-02-17T04:07:36.498Z,16.07
2019-02-17T04:10:09.063Z,15.77
2019-02-17T04:12:41.589Z,18.37
2019-02-17T04:15:15.795Z,16.60
2019-02-17T04:17:49.229Z,15.67
2019-02-17T04:20:21.884Z,16.37
2019-02-17T04:22:54.773Z,16.17
2019-02-17T04:25:27.362Z,17.33
2019-02-17T04:28:00.728Z,17.03
2019-02-17T04:30:33.807Z,15.93
2019-02-17T04:33:06.898Z,16.92
2019-02-17T04:35:39.311Z,15.70
2019-02-17T04:38:12.576Z,16.58
2019-02-17T04:40:45.097Z,16.20
2019-02-17T04:43:17.689Z,16.17
2019-02-17T04:45:50.390Z,15.07
2019-02-17T04:48:23.015Z,16.33
2019-02-17T04:51:01.697Z,16.00
2019-02-17T04:53:34.156Z,16.60
2019-02-17T04:56:07.232Z,16.98
2019-02-17T04:58:39.885Z,16.00
2019-02-17T05:01:12.434Z,16.57
2019-02-17T05:03:45.937Z,16.20
2019-02-17T05:06:18.463Z,17.08
2019-02-17T05:08:51.234Z,16.57
2019-02-17T05:11:24.207Z,15.63
2019-02-17T05:13:56.961Z,15.90
2019-02-17T05:16:29.607Z,17.48
2019-02-17T05:19:03.722Z,16.47
2019-02-17T05:21:36.359Z,17.05
2019-02-17T05:24:08.998Z,15.80
2019-02-17T05:26:50.480Z,17.23
2019-02-17T05:29:25.124Z,15.70
2019-02-17T05:31:58.580Z,16.43
2019-02-17T05:34:32.441Z,17.50
2019-02-17T05:37:05.073Z,16.70
2019-02-17T05:39:38.393Z,16.77
2019-02-17T05:42:11.154Z,16.23
2019-02-17T05:44:44.160Z,16.27
2019-02-17T05:47:16.686Z,17.00
2019-02-17T05:49:49.594Z,16.67
2019-02-17T05:52:22.070Z,16.87
2019-02-17T05:54:55.146Z,16.03
2019-02-17T05:57:28.254Z,16.97
2019-02-17T06:00:00.789Z,17.17
2019-02-17T06:02:34.788Z,17.40
2019-02-17T06:05:08.395Z,17.93
2019-02-17T06:07:42.205Z,16.90
2019-02-17T06:10:15.518Z,17.67
2019-02-17T06:12:48.610Z,17.70
2019-02-17T06:15:21.384Z,17.83
2019-02-17T06:17:54.868Z,17.53
2019-02-17T06:20:27.913Z,17.37
2019-02-17T06:23:00.784Z,17.53
2019-02-17T06:25:33.461Z,18.30
2019-02-17T06:28:06.579Z,17.53
2019-02-17T06:30:39.211Z,18.10
2019-02-17T06:33:11.881Z,17.50
2019-02-17T06:35:46.135Z,18.77
2019-02-17T06:38:18.857Z,19.17
2019-02-17T06:40:52.372Z,19.37
2019-02-17T06:43:26.129Z,19.60
2019-02-17T06:45:59.090Z,18.20
2019-02-17T06:48:32.850Z,20.12
2019-02-17T06:51:06.203Z,18.13
2019-02-17T06:53:39.475Z,18.67
2019-02-17T06:56:23.317Z,19.00
2019-02-17T06:58:55.997Z,18.40
2019-02-17T07:01:28.752Z,19.20
2019-02-17T07:04:01.621Z,17.80
2019-02-17T07:06:39.445Z,17.07
2019-02-17T07:09:11.967Z,17.97
2019-02-17T07:11:47.387Z,18.20
2019-02-17T07:14:20.910Z,17.20
2019-02-17T07:16:55.266Z,17.80
2019-02-17T07:19:33.163Z,17.50
2019-02-17T07:22:10.587Z,17.63
2019-02-17T07:24:48.113Z,16.67
2019-02-17T07:27:28.800Z,16.40
2019-02-17T07:30:07.527Z,16.53
2019-02-17T07:32:44.930Z,17.87
2019-02-17T07:35:22.848Z,16.67
2019-02-17T07:38:00.282Z,16.90
2019-02-17T07:40:37.655Z,16.87
2019-02-17T07:43:15.497Z,16.43
2019-02-17T07:45:54.169Z,16.17
2019-02-17T07:48:26.750Z,16.80
2019-02-17T07:51:00.445Z,16.83
2019-02-17T07:53:33.986Z,16.20
2019-02-17T07:56:09.654Z,16.50
2019-02-17T07:58:44.335Z,15.03
2019-02-17T08:01:17.754Z,15.97
2019-02-17T08:03:50.455Z,15.60
2019-02-17T08:06:23.711Z,15.53
2019-02-17T08:08:57.064Z,15.13
2019-02-17T08:11:29.602Z,14.67
2019-02-17T08:14:03.404Z,14.47
2019-02-17T08:16:36.010Z,14.77
2019-02-17T08:19:09.175Z,14.57
2019-02-17T08:21:43.255Z,14.10
2019-02-17T08:24:15.900Z,14.03
2019-02-17T08:26:48.367Z,14.57
2019-02-17T08:29:22.367Z,14.10
2019-02-17T08:31:56.212Z,14.83
2019-02-17T08:34:31.819Z,14.10
2019-02-17T08:37:04.641Z,14.85
2019-02-17T08:39:37.182Z,14.07
2019-02-17T08:42:09.741Z,13.87
2019-02-17T08:44:42.682Z,13.97
2019-02-17T08:47:16.630Z,15.27
2019-02-17T08:49:53.892Z,13.50
2019-02-17T08:52:32.786Z,13.87
2019-02-17T08:55:07.946Z,14.13
2019-02-17T08:57:41.709Z,14.70
2019-02-17T09:00:17.685Z,14.70
2019-02-17T09:02:54.487Z,13.40
2019-02-17T09:05:29.706Z,14.48
2019-02-17T09:08:04.004Z,13.33
2019-02-17T09:10:37.667Z,13.77
2019-02-17T09:13:12.711Z,13.33
2019-02-17T09:15:47.030Z,13.40
2019-02-17T09:18:21.335Z,13.43
2019-02-17T09:20:54.478Z,13.97
2019-02-17T09:23:28.421Z,13.10
2019-02-17T09:26:01.133Z,13.63
2019-02-17T09:28:36.272Z,13.20
2019-02-17T09:31:14.286Z,12.97
2019-02-17T09:33:47.039Z,13.83
2019-02-17T09:36:21.226Z,13.90
2019-02-17T09:38:53.870Z,14.03
2019-02-17T09:41:27.468Z,12.83
2019-02-17T09:44:09.955Z,14.53
2019-02-17T09:46:46.250Z,12.63
2019-02-17T09:49:18.888Z,12.57
2019-02-17T09:51:51.518Z,14.07
2019-02-17T09:54:25.151Z,13.03
2019-02-17T09:56:57.835Z,12.33
2019-02-17T09:59:32.633Z,12.63
2019-02-17T10:02:06.261Z,12.50
2019-02-17T10:04:41.433Z,13.37
2019-02-17T10:07:20.812Z,12.03
2019-02-17T10:09:53.408Z,12.03
2019-02-17T10:12:28.834Z,12.93
2019-02-17T10:15:04.597Z,13.23
2019-02-17T10:17:39.799Z,13.10
2019-02-17T10:20:15.999Z,12.63
2019-02-17T10:22:48.776Z,12.60
2019-02-17T10:25:22.209Z,12.20
2019-02-17T10:27:55.427Z,13.65
2019-02-17T10:30:28.557Z,12.70
2019-02-17T10:33:02.759Z,12.17
2019-02-17T10:35:37.853Z,12.37
2019-02-17T10:38:11.015Z,11.60
2019-02-17T10:40:43.619Z,11.90
2019-02-17T10:43:16.269Z,12.73
2019-02-17T10:45:51.687Z,10.87
2019-02-17T10:48:28.589Z,10.90
2019-02-17T10:51:07.680Z,11.13
2019-02-17T10:53:50.137Z,10.80
2019-02-17T10:56:23.898Z,10.60
2019-02-17T10:58:57.875Z,10.60
2019-02-17T11:01:32.108Z,11.87
2019-02-17T11:04:10.545Z,11.70
2019-02-17T11:06:45.869Z,11.07
2019-02-17T11:09:26.184Z,11.30
2019-02-17T11:11:59.062Z,10.43
2019-02-17T11:14:34.375Z,13.63
2019-02-17T11:17:11.940Z,11.50
2019-02-17T11:19:46.909Z,11.85
2019-02-17T11:22:23.384Z,10.33
2019-02-17T11:24:57.789Z,10.63
2019-02-17T11:27:32.542Z,10.90
2019-02-17T11:30:17.479Z,10.77
2019-02-17T11:32:57.525Z,11.50
2019-02-17T11:35:33.547Z,10.93
2019-02-17T11:38:08.219Z,11.33
2019-02-17T11:40:42.451Z,9.70
2019-02-17T11:43:17.395Z,9.80
2019-02-17T11:45:51.378Z,9.50
2019-02-17T11:48:24.523Z,10.40
2019-02-17T11:51:00.357Z,9.63
2019-02-17T11:53:33.259Z,9.97
2019-02-17T11:56:12.991Z,9.70
2019-02-17T11:58:47.537Z,10.07
2019-02-17T12:01:21.850Z,10.70
2019-02-17T12:03:56.677Z,10.30
2019-02-17T12:06:34.254Z,9.90
2019-02-17T12:09:07.999Z,10.63
2019-02-17T12:11:42.590Z,9.73
2019-02-17T12:14:16.387Z,11.07
2019-02-17T12:16:53.189Z,9.70
2019-02-17T12:19:26.613Z,9.87
2019-02-17T12:22:08.006Z,9.93
2019-02-17T12:24:52.039Z,9.77
2019-02-17T12:27:33.123Z,9.70
2019-02-17T12:30:12.968Z,10.68
2019-02-17T12:32:45.954Z,10.13
2019-02-17T12:35:19.014Z,9.10
2019-02-17T12:37:51.950Z,8.60
2019-02-17T12:40:25.775Z,8.37
2019-02-17T12:43:00.185Z,8.57
2019-02-17T12:45:32.819Z,8.47
2019-02-17T12:48:11.072Z,8.67
2019-02-17T12:50:47.106Z,8.87
2019-02-17T12:53:20.037Z,8.50
2019-02-17T12:55:54.424Z,9.23
2019-02-17T12:58:30.239Z,8.83
2019-02-17T13:01:03.353Z,8.67
2019-02-17T13:03:40.074Z,9.43
2019-02-17T13:06:14.347Z,8.57
2019-02-17T13:08:48.606Z,8.75
2019-02-17T13:11:24.050Z,8.30
2019-02-17T13:13:58.133Z,9.93
2019-02-17T13:16:30.716Z,9.00
2019-02-17T13:19:05.255Z,8.47
2019-02-17T13:21:38.962Z,9.55
2019-02-17T13:24:11.642Z,9.23
2019-02-17T13:26:47.308Z,8.93
2019-02-17T13:29:23.002Z,8.83
2019-02-17T13:31:57.384Z,8.60
2019-02-17T13:34:31.375Z,9.37
2019-02-17T13:37:05.081Z,8.07
2019-02-17T13:39:37.659Z,8.80
2019-02-17T13:42:11.325Z,7.00
2019-02-17T13:44:45.711Z,8.47
2019-02-17T13:47:18.828Z,10.10
2019-02-17T13:49:52.570Z,7.23
2019-02-17T13:52:31.934Z,7.70
2019-02-17T13:55:05.321Z,7.80
2019-02-17T13:57:39.133Z,7.00
2019-02-17T14:00:15.612Z,7.33
2019-02-17T14:02:50.501Z,7.10
2019-02-17T14:05:23.778Z,7.30
2019-02-17T14:08:01.060Z,6.57
2019-02-17T14:10:33.729Z,7.23
2019-02-17T14:13:07.210Z,7.40
2019-02-17T14:15:40.912Z,7.13
2019-02-17T14:18:13.514Z,7.17
2019-02-17T14:20:47.106Z,7.40
2019-02-17T14:23:19.644Z,7.17
2019-02-17T14:25:53.123Z,7.33
2019-02-17T14:28:26.688Z,7.17
2019-02-17T14:31:00.755Z,7.13
2019-02-17T14:33:58.365Z,7.30
2019-02-17T14:36:33.991Z,7.30
2019-02-17T14:39:08.624Z,7.17
2019-02-17T14:41:44.821Z,7.30
2019-02-17T14:44:17.552Z,7.17
2019-02-17T14:46:50.351Z,6.83
2019-02-17T14:49:22.931Z,6.70
2019-02-17T14:51:56.191Z,6.27
2019-02-17T14:54:29.771Z,6.43
2019-02-17T14:57:02.501Z,6.70
2019-02-17T14:59:36.720Z,6.95
2019-02-17T15:02:09.359Z,6.30
2019-02-17T15:04:42.566Z,6.20
2019-02-17T15:07:15.762Z,6.60
2019-02-17T15:09:49.739Z,7.03
2019-02-17T15:12:24.364Z,5.97
2019-02-17T15:14:56.932Z,5.73
2019-02-17T15:17:31.722Z,6.30
2019-02-17T15:20:09.431Z,6.10
2019-02-17T15:22:48.555Z,6.43
2019-02-17T15:25:24.838Z,6.10
2019-02-17T15:27:57.584Z,6.33
2019-02-17T15:30:30.776Z,6.13
2019-02-17T15:33:06.738Z,6.47
2019-02-17T15:35:41.099Z,6.77
2019-02-17T15:38:15.967Z,6.23
2019-02-17T15:40:48.698Z,6.27
2019-02-17T15:43:22.137Z,6.43
2019-02-17T15:45:56.934Z,6.67
2019-02-17T15:48:30.567Z,5.93
2019-02-17T15:51:06.577Z,6.07
2019-02-17T15:53:40.020Z,5.63
2019-02-17T15:56:12.558Z,6.00
2019-02-17T15:58:46.383Z,6.30
2019-02-17T16:01:18.983Z,5.83
2019-02-17T16:03:51.856Z,6.13
2019-02-17T16:06:26.331Z,5.23
2019-02-17T16:09:00.515Z,5.90
2019-02-17T16:11:36.380Z,5.00
2019-02-17T16:14:10.006Z,9.50
2019-02-17T16:16:45.622Z,5.33
2019-02-17T16:19:21.932Z,5.53
2019-02-17T16:21:56.616Z,5.17
2019-02-17T16:24:30.885Z,5.37
2019-02-17T16:27:04.180Z,5.47
2019-02-17T16:29:37.691Z,5.50
2019-02-17T16:32:12.588Z,5.50
2019-02-17T16:34:47.482Z,5.60
2019-02-17T16:37:21.526Z,5.67
2019-02-17T16:39:55.230Z,6.03
2019-02-17T16:42:28.920Z,6.32
2019-02-17T16:45:26.179Z,5.80
2019-02-17T16:47:59.075Z,5.83
2019-02-17T16:50:33.683Z,6.07
2019-02-17T16:53:13.369Z,5.40
2019-02-17T16:55:48.949Z,5.53
2019-02-17T16:58:21.647Z,5.63
2019-02-17T17:00:56.267Z,6.07
2019-02-17T17:03:29.727Z,5.63
2019-02-17T17:06:05.833Z,6.37
2019-02-17T17:08:38.807Z,5.77
2019-02-17T17:11:17.885Z,6.00
2019-02-17T17:13:51.526Z,5.80
2019-02-17T17:16:27.292Z,6.20
2019-02-17T17:19:03.337Z,5.83
2019-02-17T17:21:36.970Z,5.97
2019-02-17T17:24:10.740Z,5.97
2019-02-17T17:26:45.624Z,5.90
2019-02-17T17:29:21.640Z,5.80
2019-02-17T17:31:55.730Z,6.33
2019-02-17T17:34:30.877Z,6.47
2019-02-17T17:37:05.746Z,7.13
2019-02-17T17:39:38.349Z,6.03
2019-02-17T17:42:16.659Z,6.67
2019-02-17T17:44:50.294Z,5.67
2019-02-17T17:47:24.267Z,5.83
2019-02-17T17:49:57.663Z,5.90
2019-02-17T17:52:31.397Z,5.90
2019-02-17T17:55:05.559Z,6.13
2019-02-17T17:57:44.572Z,6.07
2019-02-17T18:00:23.473Z,6.13
2019-02-17T18:02:57.093Z,6.33
2019-02-17T18:05:31.087Z,6.20
2019-02-17T18:08:04.231Z,5.60
2019-02-17T18:10:40.698Z,5.43
2019-02-17T18:13:14.104Z,5.80
2019-02-17T18:15:48.702Z,6.03
2019-02-17T18:18:24.812Z,5.67
2019-02-17T18:20:59.840Z,6.20
2019-02-17T18:23:42.262Z,6.37
2019-02-17T18:26:17.616Z,5.80
2019-02-17T18:28:51.703Z,6.40
2019-02-17T18:31:26.941Z,6.43
2019-02-17T18:34:00.011Z,5.90
2019-02-17T18:36:33.224Z,5.97
2019-02-17T18:39:10.945Z,5.70
2019-02-17T18:41:45.234Z,5.60
2019-02-17T18:44:22.862Z,5.80
2019-02-17T18:47:02.993Z,13.37
2019-02-17T18:49:37.630Z,5.70
2019-02-17T18:52:11.696Z,5.70
2019-02-17T18:54:45.221Z,6.00
2019-02-17T18:57:19.785Z,6.27
2019-02-17T18:59:54.501Z,5.73
2019-02-17T19:02:30.439Z,6.05
2019-02-17T19:05:05.317Z,6.33
2019-02-17T19:07:38.501Z,6.10
2019-02-17T19:10:13.380Z,5.70
2019-02-17T19:12:46.899Z,5.90
2019-02-17T19:15:33.278Z,6.27
2019-02-17T19:18:06.814Z,7.10
2019-02-17T19:20:41.160Z,6.80
2019-02-17T19:23:17.487Z,6.50
2019-02-17T19:25:53.737Z,6.97
2019-02-17T19:28:29.055Z,6.70
2019-02-17T19:31:02.479Z,5.90
2019-02-17T19:33:35.903Z,6.50
2019-02-17T19:36:13.012Z,6.33
2019-02-17T19:38:49.374Z,6.43
2019-02-17T19:41:31.437Z,6.65
2019-02-17T19:44:13.339Z,6.50
2019-02-17T19:46:50.708Z,5.97
2019-02-17T19:49:28.887Z,6.10
2019-02-17T19:52:14.137Z,5.53
2019-02-17T19:54:58.368Z,6.73
2019-02-17T19:57:40.608Z,7.17
2019-02-17T20:00:22.506Z,6.20
2019-02-17T20:03:15.836Z,7.40
2019-02-17T20:05:56.207Z,8.00
2019-02-17T20:08:36.354Z,6.50
2019-02-17T20:11:18.187Z,7.50
2019-02-17T20:14:01.804Z,7.45
2019-02-17T20:16:41.716Z,6.85
2019-02-17T20:19:22.636Z,6.37
2019-02-17T20:22:14.298Z,6.93
2019-02-17T20:24:51.839Z,6.23
2019-02-17T20:27:31.375Z,6.20
2019-02-17T20:30:14.667Z,5.93
2019-02-17T20:32:50.820Z,6.30
2019-02-17T20:35:34.583Z,6.20
2019-02-17T20:38:21.218Z,6.43
2019-02-17T20:41:27.065Z,6.73
2019-02-17T20:44:40.569Z,6.30
2019-02-17T20:47:41.803Z,6.60
2019-02-17T20:51:04.572Z,6.53
2019-02-17T20:53:48.507Z,6.20
2019-02-17T20:56:28.346Z,6.63
2019-02-17T20:59:22.010Z,6.30
2019-02-17T21:02:08.207Z,5.87
2019-02-17T21:04:47.524Z,5.97
2019-02-17T21:07:29.785Z,6.17
2019-02-17T21:10:08.997Z,6.17
2019-02-17T21:12:45.060Z,7.35
2019-02-17T21:15:26.103Z,7.27
2019-02-17T21:18:05.907Z,6.50
2019-02-17T21:20:47.885Z,7.27
2019-02-17T21:23:27.341Z,6.80
2019-02-17T21:26:05.368Z,6.47
2019-02-17T21:28:39.633Z,7.13
2019-02-17T21:31:12.915Z,6.60
2019-02-17T21:33:47.556Z,7.47
2019-02-17T21:36:23.171Z,6.70
2019-02-17T21:39:00.148Z,7.30
2019-02-17T21:41:33.366Z,7.10
2019-02-17T21:44:08.671Z,6.77
2019-02-17T21:46:43.096Z,6.27
2019-02-17T21:49:16.639Z,6.70
2019-02-17T21:51:52.723Z,7.05
2019-02-17T21:54:28.878Z,7.37
2019-02-17T21:57:02.601Z,6.67
2019-02-17T21:59:37.854Z,6.60
2019-02-17T22:02:12.397Z,6.97
2019-02-17T22:04:46.397Z,6.63
2019-02-17T22:07:23.242Z,6.70
2019-02-17T22:10:00.694Z,7.10
2019-02-17T22:12:36.708Z,6.10
2019-02-17T22:15:18.176Z,6.77
2019-02-17T22:17:53.728Z,6.30
2019-02-17T22:20:28.955Z,7.20
2019-02-17T22:23:02.661Z,6.77
2019-02-17T22:25:41.877Z,6.50
2019-02-17T22:28:16.412Z,7.13
2019-02-17T22:30:49.056Z,6.47
2019-02-17T22:33:22.232Z,6.27
2019-02-17T22:36:12.005Z,6.77
2019-02-17T22:38:46.724Z,6.83
2019-02-17T22:41:21.799Z,6.60
2019-02-17T22:43:55.270Z,6.47
2019-02-17T22:46:28.112Z,7.17
2019-02-17T22:49:00.586Z,7.10
2019-02-17T22:51:34.423Z,6.37
2019-02-17T22:54:07.040Z,6.93
2019-02-17T22:56:39.542Z,7.10
2019-02-17T22:59:13.503Z,7.32
2019-02-17T23:01:48.182Z,6.10
2019-02-17T23:04:25.552Z,7.07
2019-02-17T23:06:59.970Z,6.40
2019-02-17T23:09:32.462Z,6.40
2019-02-17T23:12:05.694Z,6.53
2019-02-17T23:14:42.250Z,6.40
2019-02-17T23:17:14.956Z,7.13
2019-02-17T23:19:49.986Z,6.50
2019-02-17T23:22:25.808Z,7.20
2019-02-17T23:25:01.208Z,7.30
2019-02-17T23:27:33.974Z,6.93
2019-02-17T23:30:08.783Z,7.70
2019-02-17T23:32:42.254Z,7.03
2019-02-17T23:35:17.670Z,6.97
2019-02-17T23:37:50.298Z,7.00
2019-02-17T23:40:24.411Z,6.47
2019-02-17T23:42:58.535Z,6.77
2019-02-17T23:45:31.410Z,7.25
2019-02-17T23:48:05.573Z,6.83
2019-02-17T23:50:39.726Z,7.03
2019-02-17T23:53:13.715Z,7.47
2019-02-17T23:55:47.306Z,7.03
2019-02-17T23:58:23.538Z,7.20
